sensor_id;sensor_type;location;lat;lon;timestamp;P1;durP1;ratioP1;P2;durP2;ratioP2
25125;SDS011;13106;50.808;5.670;2023-07-13T00:00:21;4.97;;;1.80;;
25125;SDS011;13106;50.808;5.670;2023-07-13T00:02:47;3.33;;;1.70;;
25125;SDS011;13106;50.808;5.670;2023-07-13T00:05:13;4.38;;;1.88;;
25125;SDS011;13106;50.808;5.670;2023-07-13T00:07:39;4.72;;;1.90;;
25125;SDS011;13106;50.808;5.670;2023-07-13T00:10:06;5.55;;;1.90;;
25125;SDS011;13106;50.808;5.670;2023-07-13T00:12:34;4.30;;;1.70;;
25125;SDS011;13106;50.808;5.670;2023-07-13T00:15:02;3.08;;;1.80;;
25125;SDS011;13106;50.808;5.670;2023-07-13T00:17:29;3.47;;;1.70;;
25125;SDS011;13106;50.808;5.670;2023-07-13T00:19:55;8.13;;;2.08;;
25125;SDS011;13106;50.808;5.670;2023-07-13T00:22:22;6.78;;;1.80;;
25125;SDS011;13106;50.808;5.670;2023-07-13T00:24:50;5.47;;;1.80;;
25125;SDS011;13106;50.808;5.670;2023-07-13T00:27:17;2.80;;;1.50;;
25125;SDS011;13106;50.808;5.670;2023-07-13T00:29:43;6.13;;;1.92;;
25125;SDS011;13106;50.808;5.670;2023-07-13T00:32:09;4.82;;;2.17;;
25125;SDS011;13106;50.808;5.670;2023-07-13T00:34:36;3.72;;;1.98;;
25125;SDS011;13106;50.808;5.670;2023-07-13T00:37:03;5.22;;;1.73;;
25125;SDS011;13106;50.808;5.670;2023-07-13T00:39:31;4.22;;;1.70;;
25125;SDS011;13106;50.808;5.670;2023-07-13T00:41:57;6.10;;;1.92;;
25125;SDS011;13106;50.808;5.670;2023-07-13T00:44:23;3.72;;;1.85;;
25125;SDS011;13106;50.808;5.670;2023-07-13T00:46:50;3.25;;;1.77;;
25125;SDS011;13106;50.808;5.670;2023-07-13T00:49:17;3.60;;;1.80;;
25125;SDS011;13106;50.808;5.670;2023-07-13T00:51:48;4.05;;;1.75;;
25125;SDS011;13106;50.808;5.670;2023-07-13T00:54:17;3.33;;;1.52;;
25125;SDS011;13106;50.808;5.670;2023-07-13T00:56:43;3.75;;;1.50;;
25125;SDS011;13106;50.808;5.670;2023-07-13T00:59:10;4.88;;;1.60;;
25125;SDS011;13106;50.808;5.670;2023-07-13T01:01:37;4.78;;;1.48;;
25125;SDS011;13106;50.808;5.670;2023-07-13T01:04:04;4.38;;;2.25;;
25125;SDS011;13106;50.808;5.670;2023-07-13T01:06:33;5.25;;;1.60;;
25125;SDS011;13106;50.808;5.670;2023-07-13T01:09:00;3.30;;;1.65;;
25125;SDS011;13106;50.808;5.670;2023-07-13T01:11:27;6.25;;;1.67;;
25125;SDS011;13106;50.808;5.670;2023-07-13T01:13:53;4.90;;;2.00;;
25125;SDS011;13106;50.808;5.670;2023-07-13T01:16:22;7.53;;;1.70;;
25125;SDS011;13106;50.808;5.670;2023-07-13T01:18:49;4.03;;;1.88;;
25125;SDS011;13106;50.808;5.670;2023-07-13T01:21:15;9.10;;;5.30;;
25125;SDS011;13106;50.808;5.670;2023-07-13T01:23:42;6.68;;;4.70;;
25125;SDS011;13106;50.808;5.670;2023-07-13T01:26:09;4.90;;;1.70;;
25125;SDS011;13106;50.808;5.670;2023-07-13T01:28:35;5.00;;;1.83;;
25125;SDS011;13106;50.808;5.670;2023-07-13T01:31:02;4.40;;;1.48;;
25125;SDS011;13106;50.808;5.670;2023-07-13T01:33:28;3.40;;;2.00;;
25125;SDS011;13106;50.808;5.670;2023-07-13T01:35:54;6.20;;;1.50;;
25125;SDS011;13106;50.808;5.670;2023-07-13T01:38:22;3.33;;;1.52;;
25125;SDS011;13106;50.808;5.670;2023-07-13T01:40:50;5.18;;;1.60;;
25125;SDS011;13106;50.808;5.670;2023-07-13T01:43:16;4.75;;;1.65;;
25125;SDS011;13106;50.808;5.670;2023-07-13T01:45:43;7.10;;;1.85;;
25125;SDS011;13106;50.808;5.670;2023-07-13T01:48:09;4.15;;;1.33;;
25125;SDS011;13106;50.808;5.670;2023-07-13T01:50:35;4.47;;;1.50;;
25125;SDS011;13106;50.808;5.670;2023-07-13T01:53:02;4.97;;;1.58;;
25125;SDS011;13106;50.808;5.670;2023-07-13T01:55:28;5.63;;;1.83;;
25125;SDS011;13106;50.808;5.670;2023-07-13T01:57:55;3.97;;;1.55;;
25125;SDS011;13106;50.808;5.670;2023-07-13T02:00:21;6.82;;;2.05;;
25125;SDS011;13106;50.808;5.670;2023-07-13T02:02:47;5.60;;;2.00;;
25125;SDS011;13106;50.808;5.670;2023-07-13T02:05:14;5.57;;;1.60;;
25125;SDS011;13106;50.808;5.670;2023-07-13T02:07:40;3.80;;;1.90;;
25125;SDS011;13106;50.808;5.670;2023-07-13T02:10:07;5.43;;;1.77;;
25125;SDS011;13106;50.808;5.670;2023-07-13T02:12:33;6.35;;;2.97;;
25125;SDS011;13106;50.808;5.670;2023-07-13T02:14:59;6.72;;;2.10;;
25125;SDS011;13106;50.808;5.670;2023-07-13T02:17:25;3.47;;;1.60;;
25125;SDS011;13106;50.808;5.670;2023-07-13T02:19:52;7.82;;;2.00;;
25125;SDS011;13106;50.808;5.670;2023-07-13T02:22:18;8.93;;;2.15;;
25125;SDS011;13106;50.808;5.670;2023-07-13T02:24:44;3.22;;;1.73;;
25125;SDS011;13106;50.808;5.670;2023-07-13T02:27:10;4.88;;;1.98;;
25125;SDS011;13106;50.808;5.670;2023-07-13T02:29:36;4.22;;;1.88;;
25125;SDS011;13106;50.808;5.670;2023-07-13T02:32:02;5.78;;;1.92;;
25125;SDS011;13106;50.808;5.670;2023-07-13T02:34:28;7.22;;;2.08;;
25125;SDS011;13106;50.808;5.670;2023-07-13T02:36:54;5.95;;;2.42;;
25125;SDS011;13106;50.808;5.670;2023-07-13T02:39:20;7.40;;;1.92;;
25125;SDS011;13106;50.808;5.670;2023-07-13T02:41:46;6.50;;;1.98;;
25125;SDS011;13106;50.808;5.670;2023-07-13T02:44:13;5.93;;;2.10;;
25125;SDS011;13106;50.808;5.670;2023-07-13T02:46:40;3.58;;;2.00;;
25125;SDS011;13106;50.808;5.670;2023-07-13T02:49:06;7.65;;;2.20;;
25125;SDS011;13106;50.808;5.670;2023-07-13T02:51:32;6.43;;;2.35;;
25125;SDS011;13106;50.808;5.670;2023-07-13T02:53:59;6.85;;;2.10;;
25125;SDS011;13106;50.808;5.670;2023-07-13T02:56:26;5.82;;;2.65;;
25125;SDS011;13106;50.808;5.670;2023-07-13T02:58:53;8.60;;;2.42;;
25125;SDS011;13106;50.808;5.670;2023-07-13T03:01:20;9.48;;;1.92;;
25125;SDS011;13106;50.808;5.670;2023-07-13T03:03:47;5.93;;;2.20;;
25125;SDS011;13106;50.808;5.670;2023-07-13T03:06:13;5.70;;;2.40;;
25125;SDS011;13106;50.808;5.670;2023-07-13T03:08:39;5.53;;;1.90;;
25125;SDS011;13106;50.808;5.670;2023-07-13T03:11:07;6.15;;;2.17;;
25125;SDS011;13106;50.808;5.670;2023-07-13T03:13:33;6.13;;;2.50;;
25125;SDS011;13106;50.808;5.670;2023-07-13T03:16:00;6.45;;;2.00;;
25125;SDS011;13106;50.808;5.670;2023-07-13T03:18:29;8.15;;;2.60;;
25125;SDS011;13106;50.808;5.670;2023-07-13T03:20:55;10.52;;;2.25;;
25125;SDS011;13106;50.808;5.670;2023-07-13T03:23:21;5.20;;;2.30;;
25125;SDS011;13106;50.808;5.670;2023-07-13T03:25:48;9.57;;;2.35;;
25125;SDS011;13106;50.808;5.670;2023-07-13T03:28:14;5.38;;;2.00;;
25125;SDS011;13106;50.808;5.670;2023-07-13T03:30:41;5.82;;;2.20;;
25125;SDS011;13106;50.808;5.670;2023-07-13T03:33:07;3.60;;;1.85;;
25125;SDS011;13106;50.808;5.670;2023-07-13T03:35:36;9.38;;;2.67;;
25125;SDS011;13106;50.808;5.670;2023-07-13T03:38:05;9.02;;;2.75;;
25125;SDS011;13106;50.808;5.670;2023-07-13T03:40:31;8.63;;;2.47;;
25125;SDS011;13106;50.808;5.670;2023-07-13T03:42:58;6.13;;;2.58;;
25125;SDS011;13106;50.808;5.670;2023-07-13T03:45:24;7.72;;;2.65;;
25125;SDS011;13106;50.808;5.670;2023-07-13T03:47:50;8.52;;;2.60;;
25125;SDS011;13106;50.808;5.670;2023-07-13T03:50:16;10.85;;;2.15;;
25125;SDS011;13106;50.808;5.670;2023-07-13T03:52:42;8.82;;;2.42;;
25125;SDS011;13106;50.808;5.670;2023-07-13T03:55:08;8.20;;;2.60;;
25125;SDS011;13106;50.808;5.670;2023-07-13T03:57:34;8.63;;;2.90;;
25125;SDS011;13106;50.808;5.670;2023-07-13T04:00:00;8.70;;;2.60;;
25125;SDS011;13106;50.808;5.670;2023-07-13T04:02:26;8.93;;;2.67;;
25125;SDS011;13106;50.808;5.670;2023-07-13T04:04:52;9.13;;;2.50;;
25125;SDS011;13106;50.808;5.670;2023-07-13T04:07:19;6.65;;;2.20;;
25125;SDS011;13106;50.808;5.670;2023-07-13T04:09:45;8.15;;;3.15;;
25125;SDS011;13106;50.808;5.670;2023-07-13T04:12:11;7.60;;;2.33;;
25125;SDS011;13106;50.808;5.670;2023-07-13T04:14:37;4.93;;;1.98;;
25125;SDS011;13106;50.808;5.670;2023-07-13T04:17:03;5.55;;;2.35;;
25125;SDS011;13106;50.808;5.670;2023-07-13T04:19:30;8.02;;;2.40;;
25125;SDS011;13106;50.808;5.670;2023-07-13T04:21:56;10.88;;;2.97;;
25125;SDS011;13106;50.808;5.670;2023-07-13T04:24:22;6.43;;;2.20;;
25125;SDS011;13106;50.808;5.670;2023-07-13T04:26:48;9.05;;;2.45;;
25125;SDS011;13106;50.808;5.670;2023-07-13T04:29:14;8.82;;;2.30;;
25125;SDS011;13106;50.808;5.670;2023-07-13T04:31:40;6.95;;;2.30;;
25125;SDS011;13106;50.808;5.670;2023-07-13T04:34:06;6.72;;;2.60;;
25125;SDS011;13106;50.808;5.670;2023-07-13T04:36:32;4.75;;;2.10;;
25125;SDS011;13106;50.808;5.670;2023-07-13T04:39:02;7.18;;;2.42;;
25125;SDS011;13106;50.808;5.670;2023-07-13T04:41:28;7.10;;;3.25;;
25125;SDS011;13106;50.808;5.670;2023-07-13T04:43:54;7.25;;;2.35;;
25125;SDS011;13106;50.808;5.670;2023-07-13T04:46:21;7.57;;;2.10;;
25125;SDS011;13106;50.808;5.670;2023-07-13T04:48:49;9.82;;;2.20;;
25125;SDS011;13106;50.808;5.670;2023-07-13T04:51:16;5.97;;;2.17;;
25125;SDS011;13106;50.808;5.670;2023-07-13T04:53:42;8.82;;;2.47;;
25125;SDS011;13106;50.808;5.670;2023-07-13T04:56:08;9.75;;;2.40;;
25125;SDS011;13106;50.808;5.670;2023-07-13T04:58:34;7.72;;;2.47;;
25125;SDS011;13106;50.808;5.670;2023-07-13T05:01:00;6.93;;;2.50;;
25125;SDS011;13106;50.808;5.670;2023-07-13T05:03:27;7.15;;;2.22;;
25125;SDS011;13106;50.808;5.670;2023-07-13T05:05:56;6.03;;;2.45;;
25125;SDS011;13106;50.808;5.670;2023-07-13T05:08:23;8.82;;;3.08;;
25125;SDS011;13106;50.808;5.670;2023-07-13T05:10:49;7.97;;;2.40;;
25125;SDS011;13106;50.808;5.670;2023-07-13T05:13:15;7.97;;;2.35;;
25125;SDS011;13106;50.808;5.670;2023-07-13T05:15:42;8.73;;;2.28;;
25125;SDS011;13106;50.808;5.670;2023-07-13T05:18:08;6.32;;;2.03;;
25125;SDS011;13106;50.808;5.670;2023-07-13T05:20:34;11.60;;;2.30;;
25125;SDS011;13106;50.808;5.670;2023-07-13T05:23:00;8.85;;;2.13;;
25125;SDS011;13106;50.808;5.670;2023-07-13T05:25:26;9.35;;;2.50;;
25125;SDS011;13106;50.808;5.670;2023-07-13T05:27:52;6.25;;;2.40;;
25125;SDS011;13106;50.808;5.670;2023-07-13T05:30:18;8.65;;;2.20;;
25125;SDS011;13106;50.808;5.670;2023-07-13T05:32:44;7.85;;;2.15;;
25125;SDS011;13106;50.808;5.670;2023-07-13T05:35:10;6.50;;;2.60;;
25125;SDS011;13106;50.808;5.670;2023-07-13T05:37:37;7.07;;;2.92;;
25125;SDS011;13106;50.808;5.670;2023-07-13T05:40:03;7.55;;;2.50;;
25125;SDS011;13106;50.808;5.670;2023-07-13T05:42:29;11.35;;;2.83;;
25125;SDS011;13106;50.808;5.670;2023-07-13T05:44:56;10.65;;;2.90;;
25125;SDS011;13106;50.808;5.670;2023-07-13T05:47:22;10.23;;;2.78;;
25125;SDS011;13106;50.808;5.670;2023-07-13T05:49:48;13.02;;;2.72;;
25125;SDS011;13106;50.808;5.670;2023-07-13T05:52:14;12.57;;;2.83;;
25125;SDS011;13106;50.808;5.670;2023-07-13T05:54:40;11.50;;;3.00;;
25125;SDS011;13106;50.808;5.670;2023-07-13T05:57:06;11.27;;;2.85;;
25125;SDS011;13106;50.808;5.670;2023-07-13T05:59:32;9.10;;;2.65;;
25125;SDS011;13106;50.808;5.670;2023-07-13T06:01:58;9.82;;;4.00;;
25125;SDS011;13106;50.808;5.670;2023-07-13T06:04:24;12.40;;;3.20;;
25125;SDS011;13106;50.808;5.670;2023-07-13T06:06:50;8.07;;;3.05;;
25125;SDS011;13106;50.808;5.670;2023-07-13T06:09:16;13.82;;;3.17;;
25125;SDS011;13106;50.808;5.670;2023-07-13T06:11:42;10.25;;;4.18;;
25125;SDS011;13106;50.808;5.670;2023-07-13T06:14:08;11.65;;;2.85;;
25125;SDS011;13106;50.808;5.670;2023-07-13T06:16:34;10.30;;;3.08;;
25125;SDS011;13106;50.808;5.670;2023-07-13T06:19:00;8.27;;;2.67;;
25125;SDS011;13106;50.808;5.670;2023-07-13T06:21:27;16.27;;;3.15;;
25125;SDS011;13106;50.808;5.670;2023-07-13T06:23:53;9.00;;;2.80;;
25125;SDS011;13106;50.808;5.670;2023-07-13T06:26:19;11.38;;;2.63;;
25125;SDS011;13106;50.808;5.670;2023-07-13T06:28:45;11.75;;;2.90;;
25125;SDS011;13106;50.808;5.670;2023-07-13T06:31:12;8.52;;;2.35;;
25125;SDS011;13106;50.808;5.670;2023-07-13T06:33:39;8.60;;;2.67;;
25125;SDS011;13106;50.808;5.670;2023-07-13T06:36:05;10.40;;;3.42;;
25125;SDS011;13106;50.808;5.670;2023-07-13T06:38:32;11.43;;;3.17;;
25125;SDS011;13106;50.808;5.670;2023-07-13T06:40:58;10.02;;;3.15;;
25125;SDS011;13106;50.808;5.670;2023-07-13T06:43:24;9.25;;;2.90;;
25125;SDS011;13106;50.808;5.670;2023-07-13T06:45:51;11.75;;;2.72;;
25125;SDS011;13106;50.808;5.670;2023-07-13T06:48:17;9.50;;;2.80;;
25125;SDS011;13106;50.808;5.670;2023-07-13T06:50:44;10.10;;;2.60;;
25125;SDS011;13106;50.808;5.670;2023-07-13T06:53:11;11.82;;;2.80;;
25125;SDS011;13106;50.808;5.670;2023-07-13T06:55:38;9.85;;;2.78;;
25125;SDS011;13106;50.808;5.670;2023-07-13T06:58:04;11.32;;;3.00;;
25125;SDS011;13106;50.808;5.670;2023-07-13T07:00:30;12.65;;;2.65;;
25125;SDS011;13106;50.808;5.670;2023-07-13T07:02:57;11.35;;;3.00;;
25125;SDS011;13106;50.808;5.670;2023-07-13T07:05:23;13.05;;;3.05;;
25125;SDS011;13106;50.808;5.670;2023-07-13T07:07:49;8.38;;;2.78;;
25125;SDS011;13106;50.808;5.670;2023-07-13T07:10:15;9.27;;;2.72;;
25125;SDS011;13106;50.808;5.670;2023-07-13T07:12:42;6.50;;;2.65;;
25125;SDS011;13106;50.808;5.670;2023-07-13T07:15:08;9.07;;;3.08;;
25125;SDS011;13106;50.808;5.670;2023-07-13T07:17:34;11.77;;;3.40;;
25125;SDS011;13106;50.808;5.670;2023-07-13T07:20:00;10.43;;;3.00;;
25125;SDS011;13106;50.808;5.670;2023-07-13T07:22:26;7.45;;;3.03;;
25125;SDS011;13106;50.808;5.670;2023-07-13T07:24:56;17.05;;;3.33;;
25125;SDS011;13106;50.808;5.670;2023-07-13T07:27:22;7.57;;;2.63;;
25125;SDS011;13106;50.808;5.670;2023-07-13T07:29:49;8.88;;;2.70;;
25125;SDS011;13106;50.808;5.670;2023-07-13T07:32:15;9.40;;;2.53;;
25125;SDS011;13106;50.808;5.670;2023-07-13T07:34:41;8.27;;;2.65;;
25125;SDS011;13106;50.808;5.670;2023-07-13T07:37:09;11.57;;;3.00;;
25125;SDS011;13106;50.808;5.670;2023-07-13T07:39:36;9.68;;;4.07;;
25125;SDS011;13106;50.808;5.670;2023-07-13T07:42:03;11.48;;;2.70;;
25125;SDS011;13106;50.808;5.670;2023-07-13T07:44:30;14.30;;;3.25;;
25125;SDS011;13106;50.808;5.670;2023-07-13T07:46:56;7.05;;;2.47;;
25125;SDS011;13106;50.808;5.670;2023-07-13T07:49:22;14.05;;;3.15;;
25125;SDS011;13106;50.808;5.670;2023-07-13T07:51:48;8.88;;;2.72;;
25125;SDS011;13106;50.808;5.670;2023-07-13T07:54:15;9.00;;;3.30;;
25125;SDS011;13106;50.808;5.670;2023-07-13T07:56:42;9.70;;;3.58;;
25125;SDS011;13106;50.808;5.670;2023-07-13T07:59:08;8.63;;;2.50;;
25125;SDS011;13106;50.808;5.670;2023-07-13T08:01:34;8.02;;;3.33;;
25125;SDS011;13106;50.808;5.670;2023-07-13T08:04:00;8.55;;;2.28;;
25125;SDS011;13106;50.808;5.670;2023-07-13T08:06:26;7.03;;;2.67;;
25125;SDS011;13106;50.808;5.670;2023-07-13T08:08:52;11.68;;;2.33;;
25125;SDS011;13106;50.808;5.670;2023-07-13T08:11:18;5.80;;;2.00;;
25125;SDS011;13106;50.808;5.670;2023-07-13T08:13:44;8.85;;;2.53;;
25125;SDS011;13106;50.808;5.670;2023-07-13T08:16:10;9.05;;;2.47;;
25125;SDS011;13106;50.808;5.670;2023-07-13T08:18:37;7.50;;;2.58;;
25125;SDS011;13106;50.808;5.670;2023-07-13T08:21:06;9.18;;;2.67;;
25125;SDS011;13106;50.808;5.670;2023-07-13T08:23:33;9.70;;;2.40;;
25125;SDS011;13106;50.808;5.670;2023-07-13T08:25:59;8.88;;;2.55;;
25125;SDS011;13106;50.808;5.670;2023-07-13T08:28:26;10.85;;;2.90;;
25125;SDS011;13106;50.808;5.670;2023-07-13T08:30:53;8.52;;;2.50;;
25125;SDS011;13106;50.808;5.670;2023-07-13T08:33:19;8.00;;;2.40;;
25125;SDS011;13106;50.808;5.670;2023-07-13T08:35:46;10.95;;;2.50;;
25125;SDS011;13106;50.808;5.670;2023-07-13T08:38:12;9.60;;;2.78;;
25125;SDS011;13106;50.808;5.670;2023-07-13T08:40:38;10.43;;;2.83;;
25125;SDS011;13106;50.808;5.670;2023-07-13T08:43:06;10.48;;;2.40;;
25125;SDS011;13106;50.808;5.670;2023-07-13T08:50:56;13.10;;;2.63;;
25125;SDS011;13106;50.808;5.670;2023-07-13T08:53:23;12.55;;;2.83;;
25125;SDS011;13106;50.808;5.670;2023-07-13T08:55:57;11.32;;;3.03;;
25125;SDS011;13106;50.808;5.670;2023-07-13T08:58:23;10.23;;;2.58;;
25125;SDS011;13106;50.808;5.670;2023-07-13T09:00:59;9.93;;;2.22;;
25125;SDS011;13106;50.808;5.670;2023-07-13T09:03:52;9.30;;;2.90;;
25125;SDS011;13106;50.808;5.670;2023-07-13T09:06:15;7.72;;;2.90;;
25125;SDS011;13106;50.808;5.670;2023-07-13T09:08:59;10.90;;;2.70;;
25125;SDS011;13106;50.808;5.670;2023-07-13T09:11:36;8.05;;;2.25;;
25125;SDS011;13106;50.808;5.670;2023-07-13T09:16:53;13.63;;;2.47;;
25125;SDS011;13106;50.808;5.670;2023-07-13T09:19:29;13.40;;;2.78;;
25125;SDS011;13106;50.808;5.670;2023-07-13T09:21:57;8.48;;;2.40;;
25125;SDS011;13106;50.808;5.670;2023-07-13T09:24:29;8.70;;;2.35;;
25125;SDS011;13106;50.808;5.670;2023-07-13T09:26:58;6.35;;;1.90;;
25125;SDS011;13106;50.808;5.670;2023-07-13T09:29:28;7.28;;;1.88;;
25125;SDS011;13106;50.808;5.670;2023-07-13T09:31:55;9.20;;;8.27;;
25125;SDS011;13106;50.808;5.670;2023-07-13T09:34:23;6.82;;;1.73;;
25125;SDS011;13106;50.808;5.670;2023-07-13T09:36:49;7.70;;;2.00;;
25125;SDS011;13106;50.808;5.670;2023-07-13T09:39:24;5.13;;;2.95;;
25125;SDS011;13106;50.808;5.670;2023-07-13T09:44:18;8.73;;;2.63;;
25125;SDS011;13106;50.808;5.670;2023-07-13T09:46:54;6.68;;;2.60;;
25125;SDS011;13106;50.808;5.670;2023-07-13T09:49:26;6.55;;;2.30;;
25125;SDS011;13106;50.808;5.670;2023-07-13T09:51:59;8.07;;;2.28;;
25125;SDS011;13106;50.808;5.670;2023-07-13T09:54:26;7.60;;;1.80;;
25125;SDS011;13106;50.808;5.670;2023-07-13T09:56:55;7.85;;;1.90;;
25125;SDS011;13106;50.808;5.670;2023-07-13T10:01:49;6.82;;;2.13;;
25125;SDS011;13106;50.808;5.670;2023-07-13T10:04:19;7.90;;;2.13;;
25125;SDS011;13106;50.808;5.670;2023-07-13T10:09:14;4.95;;;1.80;;
25125;SDS011;13106;50.808;5.670;2023-07-13T10:11:41;7.30;;;1.80;;
25125;SDS011;13106;50.808;5.670;2023-07-13T10:14:20;7.55;;;1.95;;
25125;SDS011;13106;50.808;5.670;2023-07-13T10:16:56;10.95;;;2.33;;
25125;SDS011;13106;50.808;5.670;2023-07-13T10:19:26;9.43;;;1.90;;
25125;SDS011;13106;50.808;5.670;2023-07-13T10:21:54;7.50;;;1.95;;
25125;SDS011;13106;50.808;5.670;2023-07-13T10:24:24;9.13;;;1.73;;
25125;SDS011;13106;50.808;5.670;2023-07-13T10:29:38;6.47;;;1.90;;
25125;SDS011;13106;50.808;5.670;2023-07-13T10:32:09;4.05;;;1.70;;
25125;SDS011;13106;50.808;5.670;2023-07-13T10:34:35;12.82;;;2.53;;
25125;SDS011;13106;50.808;5.670;2023-07-13T10:37:02;4.97;;;1.75;;
25125;SDS011;13106;50.808;5.670;2023-07-13T10:39:28;8.00;;;2.38;;
25125;SDS011;13106;50.808;5.670;2023-07-13T10:41:59;5.88;;;1.95;;
25125;SDS011;13106;50.808;5.670;2023-07-13T10:44:28;8.13;;;2.15;;
25125;SDS011;13106;50.808;5.670;2023-07-13T10:46:55;6.78;;;2.20;;
25125;SDS011;13106;50.808;5.670;2023-07-13T10:49:23;9.27;;;2.10;;
25125;SDS011;13106;50.808;5.670;2023-07-13T10:51:50;6.20;;;1.98;;
25125;SDS011;13106;50.808;5.670;2023-07-13T10:54:27;5.82;;;1.92;;
25125;SDS011;13106;50.808;5.670;2023-07-13T10:57:07;5.05;;;1.70;;
25125;SDS011;13106;50.808;5.670;2023-07-13T10:59:34;6.15;;;2.03;;
25125;SDS011;13106;50.808;5.670;2023-07-13T11:04:39;6.43;;;1.75;;
25125;SDS011;13106;50.808;5.670;2023-07-13T11:07:11;7.35;;;1.73;;
25125;SDS011;13106;50.808;5.670;2023-07-13T11:09:43;6.65;;;1.80;;
25125;SDS011;13106;50.808;5.670;2023-07-13T11:17:33;4.38;;;1.65;;
25125;SDS011;13106;50.808;5.670;2023-07-13T11:22:51;5.93;;;1.60;;
25125;SDS011;13106;50.808;5.670;2023-07-13T11:28:15;7.40;;;1.65;;
25125;SDS011;13106;50.808;5.670;2023-07-13T11:33:24;5.47;;;1.60;;
25125;SDS011;13106;50.808;5.670;2023-07-13T11:36:04;6.97;;;1.67;;
25125;SDS011;13106;50.808;5.670;2023-07-13T11:40:58;5.07;;;1.55;;
25125;SDS011;13106;50.808;5.670;2023-07-13T11:43:28;6.15;;;1.52;;
25125;SDS011;13106;50.808;5.670;2023-07-13T11:45:54;4.30;;;1.45;;
25125;SDS011;13106;50.808;5.670;2023-07-13T11:48:21;5.32;;;1.52;;
25125;SDS011;13106;50.808;5.670;2023-07-13T11:50:54;6.22;;;1.80;;
25125;SDS011;13106;50.808;5.670;2023-07-13T11:53:21;9.57;;;2.15;;
25125;SDS011;13106;50.808;5.670;2023-07-13T11:55:48;7.28;;;1.60;;
25125;SDS011;13106;50.808;5.670;2023-07-13T11:58:16;4.88;;;1.48;;
25125;SDS011;13106;50.808;5.670;2023-07-13T12:00:43;8.88;;;1.30;;
25125;SDS011;13106;50.808;5.670;2023-07-13T12:03:10;3.78;;;1.63;;
25125;SDS011;13106;50.808;5.670;2023-07-13T12:05:37;4.32;;;1.38;;
25125;SDS011;13106;50.808;5.670;2023-07-13T12:08:09;4.68;;;1.30;;
25125;SDS011;13106;50.808;5.670;2023-07-13T12:10:36;6.00;;;1.60;;
25125;SDS011;13106;50.808;5.670;2023-07-13T12:13:03;5.82;;;1.60;;
25125;SDS011;13106;50.808;5.670;2023-07-13T12:15:37;4.00;;;1.35;;
25125;SDS011;13106;50.808;5.670;2023-07-13T12:18:10;7.82;;;1.63;;
25125;SDS011;13106;50.808;5.670;2023-07-13T12:20:38;5.85;;;1.90;;
25125;SDS011;13106;50.808;5.670;2023-07-13T12:23:05;3.50;;;1.20;;
25125;SDS011;13106;50.808;5.670;2023-07-13T12:25:32;6.13;;;1.40;;
25125;SDS011;13106;50.808;5.670;2023-07-13T12:27:58;3.38;;;1.30;;
25125;SDS011;13106;50.808;5.670;2023-07-13T12:30:26;4.53;;;1.05;;
25125;SDS011;13106;50.808;5.670;2023-07-13T12:35:23;3.35;;;1.48;;
25125;SDS011;13106;50.808;5.670;2023-07-13T12:37:50;3.53;;;1.30;;
25125;SDS011;13106;50.808;5.670;2023-07-13T12:40:20;9.60;;;1.65;;
25125;SDS011;13106;50.808;5.670;2023-07-13T12:42:48;5.90;;;1.25;;
25125;SDS011;13106;50.808;5.670;2023-07-13T12:45:18;6.18;;;1.40;;
25125;SDS011;13106;50.808;5.670;2023-07-13T12:47:47;4.05;;;1.33;;
25125;SDS011;13106;50.808;5.670;2023-07-13T12:50:15;3.70;;;1.38;;
25125;SDS011;13106;50.808;5.670;2023-07-13T12:52:42;3.40;;;1.48;;
25125;SDS011;13106;50.808;5.670;2023-07-13T12:55:12;3.95;;;1.40;;
25125;SDS011;13106;50.808;5.670;2023-07-13T12:57:45;2.83;;;1.00;;
25125;SDS011;13106;50.808;5.670;2023-07-13T13:00:33;4.30;;;0.93;;
25125;SDS011;13106;50.808;5.670;2023-07-13T13:03:22;2.05;;;0.98;;
25125;SDS011;13106;50.808;5.670;2023-07-13T13:05:48;2.83;;;1.15;;
25125;SDS011;13106;50.808;5.670;2023-07-13T13:08:14;2.67;;;1.05;;
25125;SDS011;13106;50.808;5.670;2023-07-13T13:10:40;3.78;;;1.15;;
25125;SDS011;13106;50.808;5.670;2023-07-13T13:13:07;3.22;;;1.05;;
25125;SDS011;13106;50.808;5.670;2023-07-13T13:15:33;2.83;;;1.25;;
25125;SDS011;13106;50.808;5.670;2023-07-13T13:18:01;4.50;;;1.05;;
25125;SDS011;13106;50.808;5.670;2023-07-13T13:20:27;2.92;;;1.10;;
25125;SDS011;13106;50.808;5.670;2023-07-13T13:22:53;3.05;;;1.25;;
25125;SDS011;13106;50.808;5.670;2023-07-13T13:25:21;3.45;;;0.90;;
25125;SDS011;13106;50.808;5.670;2023-07-13T13:27:47;2.60;;;0.90;;
25125;SDS011;13106;50.808;5.670;2023-07-13T13:30:15;3.13;;;1.30;;
25125;SDS011;13106;50.808;5.670;2023-07-13T13:32:42;3.70;;;1.40;;
25125;SDS011;13106;50.808;5.670;2023-07-13T13:35:18;3.30;;;0.93;;
25125;SDS011;13106;50.808;5.670;2023-07-13T13:37:45;4.82;;;1.00;;
25125;SDS011;13106;50.808;5.670;2023-07-13T13:40:16;2.78;;;1.00;;
25125;SDS011;13106;50.808;5.670;2023-07-13T13:42:43;4.70;;;1.20;;
25125;SDS011;13106;50.808;5.670;2023-07-13T13:45:09;4.20;;;1.08;;
25125;SDS011;13106;50.808;5.670;2023-07-13T13:47:35;3.67;;;1.23;;
25125;SDS011;13106;50.808;5.670;2023-07-13T13:50:20;3.40;;;1.10;;
25125;SDS011;13106;50.808;5.670;2023-07-13T13:52:47;2.78;;;0.90;;
25125;SDS011;13106;50.808;5.670;2023-07-13T13:55:18;3.03;;;1.00;;
25125;SDS011;13106;50.808;5.670;2023-07-13T13:57:45;3.80;;;1.08;;
25125;SDS011;13106;50.808;5.670;2023-07-13T14:00:11;4.88;;;1.48;;
25125;SDS011;13106;50.808;5.670;2023-07-13T14:02:40;5.03;;;1.00;;
25125;SDS011;13106;50.808;5.670;2023-07-13T14:05:09;3.47;;;1.17;;
25125;SDS011;13106;50.808;5.670;2023-07-13T14:07:36;2.55;;;0.95;;
25125;SDS011;13106;50.808;5.670;2023-07-13T14:10:04;4.15;;;1.00;;
25125;SDS011;13106;50.808;5.670;2023-07-13T14:12:34;2.58;;;1.10;;
25125;SDS011;13106;50.808;5.670;2023-07-13T14:15:00;6.43;;;1.20;;
25125;SDS011;13106;50.808;5.670;2023-07-13T14:17:27;5.05;;;1.08;;
25125;SDS011;13106;50.808;5.670;2023-07-13T14:19:53;4.40;;;1.08;;
25125;SDS011;13106;50.808;5.670;2023-07-13T14:22:23;6.60;;;1.08;;
25125;SDS011;13106;50.808;5.670;2023-07-13T14:24:51;4.90;;;1.30;;
25125;SDS011;13106;50.808;5.670;2023-07-13T14:27:18;7.88;;;1.33;;
25125;SDS011;13106;50.808;5.670;2023-07-13T14:29:44;9.27;;;2.85;;
25125;SDS011;13106;50.808;5.670;2023-07-13T14:32:11;3.92;;;1.13;;
25125;SDS011;13106;50.808;5.670;2023-07-13T14:34:40;4.20;;;1.50;;
25125;SDS011;13106;50.808;5.670;2023-07-13T14:37:10;4.50;;;1.30;;
25125;SDS011;13106;50.808;5.670;2023-07-13T14:39:38;4.65;;;1.63;;
25125;SDS011;13106;50.808;5.670;2023-07-13T14:42:04;5.43;;;1.60;;
25125;SDS011;13106;50.808;5.670;2023-07-13T14:44:30;4.10;;;1.17;;
25125;SDS011;13106;50.808;5.670;2023-07-13T14:47:01;4.38;;;1.50;;
25125;SDS011;13106;50.808;5.670;2023-07-13T14:51:55;5.50;;;1.10;;
25125;SDS011;13106;50.808;5.670;2023-07-13T14:54:22;5.78;;;1.67;;
25125;SDS011;13106;50.808;5.670;2023-07-13T14:56:49;3.33;;;1.30;;
25125;SDS011;13106;50.808;5.670;2023-07-13T14:59:15;2.95;;;1.23;;
25125;SDS011;13106;50.808;5.670;2023-07-13T15:01:43;6.00;;;1.30;;
25125;SDS011;13106;50.808;5.670;2023-07-13T15:04:10;4.50;;;1.33;;
25125;SDS011;13106;50.808;5.670;2023-07-13T15:06:56;3.17;;;1.58;;
25125;SDS011;13106;50.808;5.670;2023-07-13T15:09:22;4.80;;;2.05;;
25125;SDS011;13106;50.808;5.670;2023-07-13T15:11:53;4.43;;;3.60;;
25125;SDS011;13106;50.808;5.670;2023-07-13T15:14:19;5.30;;;3.13;;
25125;SDS011;13106;50.808;5.670;2023-07-13T15:16:46;2.55;;;1.35;;
25125;SDS011;13106;50.808;5.670;2023-07-13T15:19:12;3.97;;;1.60;;
25125;SDS011;13106;50.808;5.670;2023-07-13T15:21:38;5.65;;;1.42;;
25125;SDS011;13106;50.808;5.670;2023-07-13T15:24:04;2.35;;;1.20;;
25125;SDS011;13106;50.808;5.670;2023-07-13T15:26:33;4.30;;;1.45;;
25125;SDS011;13106;50.808;5.670;2023-07-13T15:29:00;2.55;;;1.42;;